This is the latest recevied weather packets stored in our database for station/object W0SS-13. If no packets are shown the sender has not sent any weather packets the latest 10 day(s).
| Time | Temp. | Humidity | Pressure | Rain* | Wind** | Luminosity | Snow |
|---|---|---|---|---|---|---|---|
| 1777493006 | 15° C | 55% | 1020.5 hPa | 0 mm | - | 424 W/m² | - |
| 1777492702 | 15° C | 55% | 1020.6 hPa | 0 mm | - | 388 W/m² | - |
| 1777492402 | 14.44° C | 54% | 1020.7 hPa | 0 mm | - | 338 W/m² | - |
| 1777492100 | 14.44° C | 56% | 1020.7 hPa | 0 mm | - | 314 W/m² | - |
| 1777491797 | 15° C | 56% | 1020.8 hPa | 0 mm | - | 301 W/m² | - |
| 1777491493 | 14.44° C | 56% | 1020.6 hPa | 0 mm | - | 273 W/m² | - |
| 1777491191 | 14.44° C | 59% | 1020.5 hPa | 0 mm | - | 258 W/m² | - |
| 1777490886 | 15° C | 54% | 1020.7 hPa | 0 mm | - | 254 W/m² | - |
| 1777490583 | 14.44° C | 54% | 1020.6 hPa | 0 mm | - | 294 W/m² | - |
| 1777490278 | 15° C | 56% | 1020.6 hPa | 0 mm | - | 327 W/m² | - |
| 1777489976 | 15° C | 54% | 1020.8 hPa | 0 mm | - | 338 W/m² | - |
| 1777489674 | 14.44° C | 57% | 1020.5 hPa | 0 mm | - | 322 W/m² | - |
| 1777489370 | 14.44° C | 57% | 1020.7 hPa | 0 mm | - | 324 W/m² | - |
| 1777489067 | 15° C | 57% | 1020.9 hPa | 0 mm | - | 370 W/m² | - |
| 1777488764 | 15° C | 57% | 1020.9 hPa | 0 mm | - | 395 W/m² | - |
| 1777488462 | 15° C | 55% | 1021.2 hPa | 0 mm | - | 509 W/m² | - |
| 1777488160 | 15° C | 59% | 1021 hPa | 0 mm | - | 684 W/m² | - |
| 1777487858 | 15° C | 57% | 1021 hPa | 0 mm | - | 561 W/m² | - |
| 1777487556 | 14.44° C | 59% | 1021.1 hPa | 0 mm | - | 453 W/m² | - |
| 1777487252 | 14.44° C | 58% | 1021.1 hPa | 0 mm | - | 404 W/m² | - |
| 1777486948 | 15° C | 59% | 1021 hPa | 0 mm | - | 410 W/m² | - |
| 1777486645 | 14.44° C | 56% | 1021.1 hPa | 0 mm | - | 488 W/m² | - |
| 1777486343 | 13.89° C | 59% | 1021.2 hPa | 0 mm | - | 457 W/m² | - |
| 1777486040 | 13.89° C | 59% | 1021.3 hPa | 0 mm | - | 444 W/m² | - |
| 1777485737 | 13.89° C | 60% | 1021.3 hPa | 0 mm | - | 526 W/m² | - |
* Rain latest hour (hover to see other rain measurements)
** Current wind speed in m/s (hover to see current wind gust speed)